sensor_id;sensor_type;location;lat;lon;timestamp;temperature;humidity
74968;SHT30;63523;51.880;12.630;2023-07-31T00:01:51;15.79;86.59
74968;SHT30;63523;51.880;12.630;2023-07-31T00:04:16;15.86;86.81
74968;SHT30;63523;51.880;12.630;2023-07-31T00:06:41;15.86;86.89
74968;SHT30;63523;51.880;12.630;2023-07-31T00:09:07;15.90;86.87
74968;SHT30;63523;51.880;12.630;2023-07-31T00:11:32;15.91;86.42
74968;SHT30;63523;51.880;12.630;2023-07-31T00:13:57;15.96;86.10
74968;SHT30;63523;51.880;12.630;2023-07-31T00:16:23;15.97;85.87
74968;SHT30;63523;51.880;12.630;2023-07-31T00:18:48;15.98;85.71
74968;SHT30;63523;51.880;12.630;2023-07-31T00:21:14;15.98;85.59
74968;SHT30;63523;51.880;12.630;2023-07-31T00:23:39;15.97;85.17
74968;SHT30;63523;51.880;12.630;2023-07-31T00:26:04;15.98;85.04
74968;SHT30;63523;51.880;12.630;2023-07-31T00:28:30;16.00;84.59
74968;SHT30;63523;51.880;12.630;2023-07-31T00:30:55;16.00;84.29
74968;SHT30;63523;51.880;12.630;2023-07-31T00:33:20;16.05;84.58
74968;SHT30;63523;51.880;12.630;2023-07-31T00:35:45;16.05;84.57
74968;SHT30;63523;51.880;12.630;2023-07-31T00:38:11;16.07;84.23
74968;SHT30;63523;51.880;12.630;2023-07-31T00:40:37;16.11;84.24
74968;SHT30;63523;51.880;12.630;2023-07-31T00:43:02;16.10;83.99
74968;SHT30;63523;51.880;12.630;2023-07-31T00:45:28;16.10;83.96
74968;SHT30;63523;51.880;12.630;2023-07-31T00:47:54;16.14;84.11
74968;SHT30;63523;51.880;12.630;2023-07-31T00:50:19;16.12;83.90
74968;SHT30;63523;51.880;12.630;2023-07-31T00:52:44;16.12;83.94
74968;SHT30;63523;51.880;12.630;2023-07-31T00:55:10;16.12;83.61
74968;SHT30;63523;51.880;12.630;2023-07-31T00:57:36;16.14;83.45
74968;SHT30;63523;51.880;12.630;2023-07-31T01:00:02;16.15;82.95
74968;SHT30;63523;51.880;12.630;2023-07-31T01:02:28;16.18;83.20
74968;SHT30;63523;51.880;12.630;2023-07-31T01:04:54;16.15;82.71
74968;SHT30;63523;51.880;12.630;2023-07-31T01:07:39;16.18;82.35
74968;SHT30;63523;51.880;12.630;2023-07-31T01:10:18;16.21;82.06
74968;SHT30;63523;51.880;12.630;2023-07-31T01:12:46;16.18;81.70
74968;SHT30;63523;51.880;12.630;2023-07-31T01:15:13;16.21;81.62
74968;SHT30;63523;51.880;12.630;2023-07-31T01:17:41;16.25;81.31
74968;SHT30;63523;51.880;12.630;2023-07-31T01:20:23;16.35;80.79
74968;SHT30;63523;51.880;12.630;2023-07-31T01:25:56;16.38;79.34
74968;SHT30;63523;51.880;12.630;2023-07-31T01:28:55;16.46;79.39
74968;SHT30;63523;51.880;12.630;2023-07-31T01:31:23;16.51;78.68
74968;SHT30;63523;51.880;12.630;2023-07-31T01:33:50;16.56;78.90
74968;SHT30;63523;51.880;12.630;2023-07-31T01:36:17;16.59;77.75
74968;SHT30;63523;51.880;12.630;2023-07-31T01:38:43;16.60;78.63
74968;SHT30;63523;51.880;12.630;2023-07-31T01:41:08;16.66;78.16
74968;SHT30;63523;51.880;12.630;2023-07-31T01:43:33;16.70;77.81
74968;SHT30;63523;51.880;12.630;2023-07-31T01:45:59;16.69;77.53
74968;SHT30;63523;51.880;12.630;2023-07-31T01:48:24;16.70;77.58
74968;SHT30;63523;51.880;12.630;2023-07-31T01:50:49;16.67;77.81
74968;SHT30;63523;51.880;12.630;2023-07-31T01:53:15;16.69;78.92
74968;SHT30;63523;51.880;12.630;2023-07-31T01:55:40;16.65;78.04
74968;SHT30;63523;51.880;12.630;2023-07-31T01:58:05;16.63;78.85
74968;SHT30;63523;51.880;12.630;2023-07-31T02:00:31;16.60;78.05
74968;SHT30;63523;51.880;12.630;2023-07-31T02:02:56;16.60;78.80
74968;SHT30;63523;51.880;12.630;2023-07-31T02:05:21;16.57;78.92
74968;SHT30;63523;51.880;12.630;2023-07-31T02:07:46;16.57;79.61
74968;SHT30;63523;51.880;12.630;2023-07-31T02:10:12;16.55;79.10
74968;SHT30;63523;51.880;12.630;2023-07-31T02:12:38;16.52;79.24
74968;SHT30;63523;51.880;12.630;2023-07-31T02:15:03;16.49;79.66
74968;SHT30;63523;51.880;12.630;2023-07-31T02:17:29;16.44;79.66
74968;SHT30;63523;51.880;12.630;2023-07-31T02:19:54;16.44;79.21
74968;SHT30;63523;51.880;12.630;2023-07-31T02:22:20;16.41;79.51
74968;SHT30;63523;51.880;12.630;2023-07-31T02:24:45;16.42;79.33
74968;SHT30;63523;51.880;12.630;2023-07-31T02:27:10;16.42;79.19
74968;SHT30;63523;51.880;12.630;2023-07-31T02:29:36;16.42;79.91
74968;SHT30;63523;51.880;12.630;2023-07-31T02:32:01;16.45;79.78
74968;SHT30;63523;51.880;12.630;2023-07-31T02:34:27;16.44;79.40
74968;SHT30;63523;51.880;12.630;2023-07-31T02:36:52;16.44;80.34
74968;SHT30;63523;51.880;12.630;2023-07-31T02:39:17;16.42;80.06
74968;SHT30;63523;51.880;12.630;2023-07-31T02:41:42;16.44;79.60
74968;SHT30;63523;51.880;12.630;2023-07-31T02:44:08;16.46;80.25
74968;SHT30;63523;51.880;12.630;2023-07-31T02:46:33;16.44;80.57
74968;SHT30;63523;51.880;12.630;2023-07-31T02:48:59;16.41;80.65
74968;SHT30;63523;51.880;12.630;2023-07-31T02:51:24;16.38;80.34
74968;SHT30;63523;51.880;12.630;2023-07-31T02:53:49;16.39;80.67
74968;SHT30;63523;51.880;12.630;2023-07-31T02:56:15;16.38;80.87
74968;SHT30;63523;51.880;12.630;2023-07-31T02:58:40;16.39;80.34
74968;SHT30;63523;51.880;12.630;2023-07-31T03:01:05;16.39;81.10
74968;SHT30;63523;51.880;12.630;2023-07-31T03:03:31;16.39;81.22
74968;SHT30;63523;51.880;12.630;2023-07-31T03:05:56;16.42;80.50
74968;SHT30;63523;51.880;12.630;2023-07-31T03:08:21;16.44;80.88
74968;SHT30;63523;51.880;12.630;2023-07-31T03:10:47;16.45;80.72
74968;SHT30;63523;51.880;12.630;2023-07-31T03:13:12;16.45;80.50
74968;SHT30;63523;51.880;12.630;2023-07-31T03:15:37;16.46;80.53
74968;SHT30;63523;51.880;12.630;2023-07-31T03:18:02;16.49;80.40
74968;SHT30;63523;51.880;12.630;2023-07-31T03:20:28;16.51;80.40
74968;SHT30;63523;51.880;12.630;2023-07-31T03:22:53;16.52;80.43
74968;SHT30;63523;51.880;12.630;2023-07-31T03:25:18;16.53;79.92
74968;SHT30;63523;51.880;12.630;2023-07-31T03:27:44;16.55;80.10
74968;SHT30;63523;51.880;12.630;2023-07-31T03:30:09;16.57;80.12
74968;SHT30;63523;51.880;12.630;2023-07-31T03:32:35;16.56;80.41
74968;SHT30;63523;51.880;12.630;2023-07-31T03:35:00;16.57;79.89
74968;SHT30;63523;51.880;12.630;2023-07-31T03:37:25;16.59;80.33
74968;SHT30;63523;51.880;12.630;2023-07-31T03:39:51;16.62;80.32
74968;SHT30;63523;51.880;12.630;2023-07-31T03:42:16;16.62;80.35
74968;SHT30;63523;51.880;12.630;2023-07-31T03:44:42;16.59;80.58
74968;SHT30;63523;51.880;12.630;2023-07-31T03:47:07;16.62;79.86
74968;SHT30;63523;51.880;12.630;2023-07-31T03:49:32;16.65;79.80
74968;SHT30;63523;51.880;12.630;2023-07-31T03:51:58;16.63;79.43
74968;SHT30;63523;51.880;12.630;2023-07-31T03:54:23;16.67;79.29
74968;SHT30;63523;51.880;12.630;2023-07-31T03:56:49;16.66;80.02
74968;SHT30;63523;51.880;12.630;2023-07-31T03:59:14;16.70;79.91
74968;SHT30;63523;51.880;12.630;2023-07-31T04:01:40;16.73;79.73
74968;SHT30;63523;51.880;12.630;2023-07-31T04:04:05;16.74;79.36
74968;SHT30;63523;51.880;12.630;2023-07-31T04:06:30;16.73;79.75
74968;SHT30;63523;51.880;12.630;2023-07-31T04:08:56;16.76;79.59
74968;SHT30;63523;51.880;12.630;2023-07-31T04:11:21;16.74;80.02
74968;SHT30;63523;51.880;12.630;2023-07-31T04:13:46;16.79;80.14
74968;SHT30;63523;51.880;12.630;2023-07-31T04:16:12;16.74;80.47
74968;SHT30;63523;51.880;12.630;2023-07-31T04:18:37;16.73;80.97
74968;SHT30;63523;51.880;12.630;2023-07-31T04:21:03;16.70;81.69
74968;SHT30;63523;51.880;12.630;2023-07-31T04:23:28;16.69;82.21
74968;SHT30;63523;51.880;12.630;2023-07-31T04:25:54;16.60;82.32
74968;SHT30;63523;51.880;12.630;2023-07-31T04:28:19;16.46;83.14
74968;SHT30;63523;51.880;12.630;2023-07-31T04:30:44;16.42;83.90
74968;SHT30;63523;51.880;12.630;2023-07-31T04:33:09;16.38;84.24
74968;SHT30;63523;51.880;12.630;2023-07-31T04:35:35;16.38;84.59
74968;SHT30;63523;51.880;12.630;2023-07-31T04:38:00;16.36;84.66
74968;SHT30;63523;51.880;12.630;2023-07-31T04:40:26;16.33;84.87
74968;SHT30;63523;51.880;12.630;2023-07-31T04:42:51;16.30;85.08
74968;SHT30;63523;51.880;12.630;2023-07-31T04:45:16;16.22;84.75
74968;SHT30;63523;51.880;12.630;2023-07-31T04:47:42;16.15;84.71
74968;SHT30;63523;51.880;12.630;2023-07-31T04:50:08;16.15;84.83
74968;SHT30;63523;51.880;12.630;2023-07-31T04:52:33;16.17;84.52
74968;SHT30;63523;51.880;12.630;2023-07-31T04:54:58;16.19;84.77
74968;SHT30;63523;51.880;12.630;2023-07-31T04:57:24;16.15;85.15
74968;SHT30;63523;51.880;12.630;2023-07-31T04:59:49;16.22;85.52
74968;SHT30;63523;51.880;12.630;2023-07-31T05:02:14;16.18;85.36
74968;SHT30;63523;51.880;12.630;2023-07-31T05:04:40;16.18;85.39
74968;SHT30;63523;51.880;12.630;2023-07-31T05:07:05;16.18;85.22
74968;SHT30;63523;51.880;12.630;2023-07-31T05:09:30;16.15;85.52
74968;SHT30;63523;51.880;12.630;2023-07-31T05:11:56;16.12;85.40
74968;SHT30;63523;51.880;12.630;2023-07-31T05:14:21;16.05;85.49
74968;SHT30;63523;51.880;12.630;2023-07-31T05:16:47;16.02;85.81
74968;SHT30;63523;51.880;12.630;2023-07-31T05:19:12;16.00;85.38
74968;SHT30;63523;51.880;12.630;2023-07-31T05:21:37;16.04;86.01
74968;SHT30;63523;51.880;12.630;2023-07-31T05:24:03;16.00;85.66
74968;SHT30;63523;51.880;12.630;2023-07-31T05:26:28;15.97;85.89
74968;SHT30;63523;51.880;12.630;2023-07-31T05:28:54;15.94;85.65
74968;SHT30;63523;51.880;12.630;2023-07-31T05:31:19;15.93;85.73
74968;SHT30;63523;51.880;12.630;2023-07-31T05:33:45;15.96;86.14
74968;SHT30;63523;51.880;12.630;2023-07-31T05:36:11;16.01;86.11
74968;SHT30;63523;51.880;12.630;2023-07-31T05:38:36;15.94;86.12
74968;SHT30;63523;51.880;12.630;2023-07-31T05:41:01;15.96;86.39
74968;SHT30;63523;51.880;12.630;2023-07-31T05:43:53;15.93;86.66
74968;SHT30;63523;51.880;12.630;2023-07-31T05:46:24;15.96;87.31
74968;SHT30;63523;51.880;12.630;2023-07-31T05:48:52;15.97;87.67
74968;SHT30;63523;51.880;12.630;2023-07-31T05:51:28;15.96;87.70
74968;SHT30;63523;51.880;12.630;2023-07-31T05:53:53;15.98;87.69
74968;SHT30;63523;51.880;12.630;2023-07-31T05:56:28;16.00;87.82
74968;SHT30;63523;51.880;12.630;2023-07-31T05:59:00;16.02;88.19
74968;SHT30;63523;51.880;12.630;2023-07-31T06:01:26;16.07;88.40
74968;SHT30;63523;51.880;12.630;2023-07-31T06:03:51;16.12;88.31
74968;SHT30;63523;51.880;12.630;2023-07-31T06:06:34;16.15;87.97
74968;SHT30;63523;51.880;12.630;2023-07-31T06:09:08;16.12;87.71
74968;SHT30;63523;51.880;12.630;2023-07-31T06:11:33;16.08;87.81
74968;SHT30;63523;51.880;12.630;2023-07-31T06:13:59;16.07;87.94
74968;SHT30;63523;51.880;12.630;2023-07-31T06:16:24;16.04;88.26
74968;SHT30;63523;51.880;12.630;2023-07-31T06:18:50;16.05;88.15
74968;SHT30;63523;51.880;12.630;2023-07-31T06:21:15;16.10;88.31
74968;SHT30;63523;51.880;12.630;2023-07-31T06:23:41;16.10;88.42
74968;SHT30;63523;51.880;12.630;2023-07-31T06:26:06;16.15;88.45
74968;SHT30;63523;51.880;12.630;2023-07-31T06:28:32;16.18;88.45
74968;SHT30;63523;51.880;12.630;2023-07-31T06:30:58;16.32;88.49
74968;SHT30;63523;51.880;12.630;2023-07-31T06:33:23;16.35;87.99
74968;SHT30;63523;51.880;12.630;2023-07-31T06:35:49;16.44;88.02
74968;SHT30;63523;51.880;12.630;2023-07-31T06:38:14;16.41;87.91
74968;SHT30;63523;51.880;12.630;2023-07-31T06:40:39;16.41;88.06
74968;SHT30;63523;51.880;12.630;2023-07-31T06:43:05;16.35;88.03
74968;SHT30;63523;51.880;12.630;2023-07-31T06:45:35;16.33;88.17
74968;SHT30;63523;51.880;12.630;2023-07-31T06:48:01;16.29;88.41
74968;SHT30;63523;51.880;12.630;2023-07-31T06:50:28;16.30;88.67
74968;SHT30;63523;51.880;12.630;2023-07-31T06:52:53;16.36;88.18
74968;SHT30;63523;51.880;12.630;2023-07-31T06:55:20;16.35;87.97
74968;SHT30;63523;51.880;12.630;2023-07-31T06:57:46;16.38;88.14
74968;SHT30;63523;51.880;12.630;2023-07-31T07:00:12;16.39;87.98
74968;SHT30;63523;51.880;12.630;2023-07-31T07:02:38;16.42;88.17
74968;SHT30;63523;51.880;12.630;2023-07-31T07:05:04;16.45;88.43
74968;SHT30;63523;51.880;12.630;2023-07-31T07:07:29;16.48;88.22
74968;SHT30;63523;51.880;12.630;2023-07-31T07:09:54;16.49;88.00
74968;SHT30;63523;51.880;12.630;2023-07-31T07:12:20;16.48;88.13
74968;SHT30;63523;51.880;12.630;2023-07-31T07:14:45;16.55;88.40
74968;SHT30;63523;51.880;12.630;2023-07-31T07:17:13;16.55;88.27
74968;SHT30;63523;51.880;12.630;2023-07-31T07:19:42;16.59;88.25
74968;SHT30;63523;51.880;12.630;2023-07-31T07:22:07;16.60;88.38
74968;SHT30;63523;51.880;12.630;2023-07-31T07:24:32;16.66;87.94
74968;SHT30;63523;51.880;12.630;2023-07-31T07:26:58;16.69;87.63
74968;SHT30;63523;51.880;12.630;2023-07-31T07:29:23;16.74;87.80
74968;SHT30;63523;51.880;12.630;2023-07-31T07:31:48;16.83;87.89
74968;SHT30;63523;51.880;12.630;2023-07-31T07:34:14;16.84;87.62
74968;SHT30;63523;51.880;12.630;2023-07-31T07:36:39;16.79;87.32
74968;SHT30;63523;51.880;12.630;2023-07-31T07:39:04;16.84;87.82
74968;SHT30;63523;51.880;12.630;2023-07-31T07:41:30;16.79;86.99
74968;SHT30;63523;51.880;12.630;2023-07-31T07:43:55;16.85;87.60
74968;SHT30;63523;51.880;12.630;2023-07-31T07:46:20;16.91;87.65
74968;SHT30;63523;51.880;12.630;2023-07-31T07:48:46;16.97;87.27
74968;SHT30;63523;51.880;12.630;2023-07-31T07:51:11;16.99;87.08
74968;SHT30;63523;51.880;12.630;2023-07-31T07:53:36;17.11;87.41
74968;SHT30;63523;51.880;12.630;2023-07-31T07:56:02;17.12;86.20
74968;SHT30;63523;51.880;12.630;2023-07-31T07:58:27;17.17;86.39
74968;SHT30;63523;51.880;12.630;2023-07-31T08:00:52;17.25;86.05
74968;SHT30;63523;51.880;12.630;2023-07-31T08:03:18;17.40;86.27
74968;SHT30;63523;51.880;12.630;2023-07-31T08:05:44;17.65;84.93
74968;SHT30;63523;51.880;12.630;2023-07-31T08:08:14;17.82;85.24
74968;SHT30;63523;51.880;12.630;2023-07-31T08:10:40;17.93;84.48
74968;SHT30;63523;51.880;12.630;2023-07-31T08:13:05;18.01;83.74
74968;SHT30;63523;51.880;12.630;2023-07-31T08:15:30;18.07;83.22
74968;SHT30;63523;51.880;12.630;2023-07-31T08:17:56;18.02;83.20
74968;SHT30;63523;51.880;12.630;2023-07-31T08:20:21;18.04;83.17
74968;SHT30;63523;51.880;12.630;2023-07-31T08:22:46;17.98;83.50
74968;SHT30;63523;51.880;12.630;2023-07-31T08:25:11;17.97;83.37
74968;SHT30;63523;51.880;12.630;2023-07-31T08:27:37;17.97;83.55
74968;SHT30;63523;51.880;12.630;2023-07-31T08:30:02;17.93;81.99
74968;SHT30;63523;51.880;12.630;2023-07-31T08:32:28;17.93;83.07
74968;SHT30;63523;51.880;12.630;2023-07-31T08:34:53;17.93;83.14
74968;SHT30;63523;51.880;12.630;2023-07-31T08:37:18;18.02;83.33
74968;SHT30;63523;51.880;12.630;2023-07-31T08:39:44;18.17;83.55
74968;SHT30;63523;51.880;12.630;2023-07-31T08:42:09;18.39;83.09
74968;SHT30;63523;51.880;12.630;2023-07-31T08:44:35;18.59;83.18
74968;SHT30;63523;51.880;12.630;2023-07-31T08:47:01;18.80;80.57
74968;SHT30;63523;51.880;12.630;2023-07-31T08:49:27;18.94;81.45
74968;SHT30;63523;51.880;12.630;2023-07-31T08:51:54;19.07;80.23
74968;SHT30;63523;51.880;12.630;2023-07-31T08:54:20;19.07;79.17
74968;SHT30;63523;51.880;12.630;2023-07-31T08:56:46;19.03;78.66
74968;SHT30;63523;51.880;12.630;2023-07-31T08:59:13;19.10;77.36
74968;SHT30;63523;51.880;12.630;2023-07-31T09:01:43;19.10;78.37
74968;SHT30;63523;51.880;12.630;2023-07-31T09:04:12;19.17;77.66
74968;SHT30;63523;51.880;12.630;2023-07-31T09:06:38;19.22;79.10
74968;SHT30;63523;51.880;12.630;2023-07-31T09:09:04;19.27;77.81
74968;SHT30;63523;51.880;12.630;2023-07-31T09:11:29;19.29;76.84
74968;SHT30;63523;51.880;12.630;2023-07-31T09:13:57;19.27;76.99
74968;SHT30;63523;51.880;12.630;2023-07-31T09:16:28;19.29;76.33
74968;SHT30;63523;51.880;12.630;2023-07-31T09:18:57;19.32;76.43
74968;SHT30;63523;51.880;12.630;2023-07-31T09:21:24;19.35;76.04
74968;SHT30;63523;51.880;12.630;2023-07-31T09:23:50;19.45;75.72
74968;SHT30;63523;51.880;12.630;2023-07-31T09:26:33;19.65;74.59
74968;SHT30;63523;51.880;12.630;2023-07-31T09:29:00;19.76;74.84
74968;SHT30;63523;51.880;12.630;2023-07-31T09:31:42;19.83;72.78
74968;SHT30;63523;51.880;12.630;2023-07-31T09:34:08;19.84;72.59
74968;SHT30;63523;51.880;12.630;2023-07-31T09:36:40;19.86;72.42
74968;SHT30;63523;51.880;12.630;2023-07-31T09:39:09;19.86;72.93
74968;SHT30;63523;51.880;12.630;2023-07-31T09:41:39;20.04;72.12
74968;SHT30;63523;51.880;12.630;2023-07-31T09:44:05;20.08;71.54
74968;SHT30;63523;51.880;12.630;2023-07-31T09:46:30;19.96;70.68
74968;SHT30;63523;51.880;12.630;2023-07-31T09:49:13;19.93;71.89
74968;SHT30;63523;51.880;12.630;2023-07-31T09:51:40;19.87;73.10
74968;SHT30;63523;51.880;12.630;2023-07-31T09:54:12;19.91;72.93
74968;SHT30;63523;51.880;12.630;2023-07-31T09:56:48;19.97;73.48
74968;SHT30;63523;51.880;12.630;2023-07-31T09:59:20;19.97;72.17
74968;SHT30;63523;51.880;12.630;2023-07-31T10:01:46;19.98;72.61
74968;SHT30;63523;51.880;12.630;2023-07-31T10:04:12;19.96;73.30
74968;SHT30;63523;51.880;12.630;2023-07-31T10:06:39;20.10;71.56
74968;SHT30;63523;51.880;12.630;2023-07-31T10:09:07;20.35;71.90
74968;SHT30;63523;51.880;12.630;2023-07-31T10:11:41;20.59;69.41
74968;SHT30;63523;51.880;12.630;2023-07-31T10:14:07;20.57;69.11
74968;SHT30;63523;51.880;12.630;2023-07-31T10:16:35;20.53;70.65
74968;SHT30;63523;51.880;12.630;2023-07-31T10:19:01;20.49;69.99
74968;SHT30;63523;51.880;12.630;2023-07-31T10:21:27;20.48;70.99
74968;SHT30;63523;51.880;12.630;2023-07-31T10:23:53;20.45;69.83
74968;SHT30;63523;51.880;12.630;2023-07-31T10:26:19;20.38;70.04
74968;SHT30;63523;51.880;12.630;2023-07-31T10:28:46;20.39;70.22
74968;SHT30;63523;51.880;12.630;2023-07-31T10:31:12;20.34;72.71
74968;SHT30;63523;51.880;12.630;2023-07-31T10:33:39;20.11;73.89
74968;SHT30;63523;51.880;12.630;2023-07-31T10:36:18;19.87;73.96
74968;SHT30;63523;51.880;12.630;2023-07-31T10:38:44;19.72;74.74
74968;SHT30;63523;51.880;12.630;2023-07-31T10:41:10;19.67;73.66
74968;SHT30;63523;51.880;12.630;2023-07-31T10:43:39;19.76;73.06
74968;SHT30;63523;51.880;12.630;2023-07-31T10:46:08;19.80;72.99
74968;SHT30;63523;51.880;12.630;2023-07-31T10:48:39;19.91;73.44
74968;SHT30;63523;51.880;12.630;2023-07-31T10:51:08;20.10;71.72
74968;SHT30;63523;51.880;12.630;2023-07-31T10:53:35;20.20;71.51
74968;SHT30;63523;51.880;12.630;2023-07-31T10:56:02;20.26;72.57
74968;SHT30;63523;51.880;12.630;2023-07-31T10:58:28;20.24;72.10
74968;SHT30;63523;51.880;12.630;2023-07-31T11:00:59;20.20;70.81
74968;SHT30;63523;51.880;12.630;2023-07-31T11:03:26;20.15;71.35
74968;SHT30;63523;51.880;12.630;2023-07-31T11:08:31;20.35;71.60
74968;SHT30;63523;51.880;12.630;2023-07-31T11:13:28;20.73;71.61
74968;SHT30;63523;51.880;12.630;2023-07-31T11:15:54;21.01;70.73
74968;SHT30;63523;51.880;12.630;2023-07-31T11:18:19;21.04;69.32
74968;SHT30;63523;51.880;12.630;2023-07-31T11:20:45;21.18;70.63
74968;SHT30;63523;51.880;12.630;2023-07-31T11:23:11;21.34;70.91
74968;SHT30;63523;51.880;12.630;2023-07-31T11:25:38;21.48;68.86
74968;SHT30;63523;51.880;12.630;2023-07-31T11:28:05;21.43;68.24
74968;SHT30;63523;51.880;12.630;2023-07-31T11:30:31;21.21;68.20
74968;SHT30;63523;51.880;12.630;2023-07-31T11:32:57;21.03;69.73
74968;SHT30;63523;51.880;12.630;2023-07-31T11:35:22;20.83;69.13
74968;SHT30;63523;51.880;12.630;2023-07-31T11:37:48;20.66;70.03
74968;SHT30;63523;51.880;12.630;2023-07-31T11:40:14;20.59;71.60
74968;SHT30;63523;51.880;12.630;2023-07-31T11:42:40;20.51;71.89
74968;SHT30;63523;51.880;12.630;2023-07-31T11:45:07;20.46;72.11
74968;SHT30;63523;51.880;12.630;2023-07-31T11:47:34;20.34;71.42
74968;SHT30;63523;51.880;12.630;2023-07-31T11:50:01;20.22;71.91
74968;SHT30;63523;51.880;12.630;2023-07-31T11:52:28;20.17;73.19
74968;SHT30;63523;51.880;12.630;2023-07-31T11:54:55;20.13;73.22
74968;SHT30;63523;51.880;12.630;2023-07-31T11:57:21;20.10;73.35
74968;SHT30;63523;51.880;12.630;2023-07-31T11:59:48;20.01;72.99
74968;SHT30;63523;51.880;12.630;2023-07-31T12:02:13;19.97;73.27
74968;SHT30;63523;51.880;12.630;2023-07-31T12:04:39;19.91;73.39
74968;SHT30;63523;51.880;12.630;2023-07-31T12:07:05;19.89;74.75
74968;SHT30;63523;51.880;12.630;2023-07-31T12:09:30;19.80;75.58
74968;SHT30;63523;51.880;12.630;2023-07-31T12:11:55;19.81;75.17
74968;SHT30;63523;51.880;12.630;2023-07-31T12:14:23;19.72;76.29
74968;SHT30;63523;51.880;12.630;2023-07-31T12:17:10;19.74;76.59
74968;SHT30;63523;51.880;12.630;2023-07-31T12:20:00;19.76;77.47
74968;SHT30;63523;51.880;12.630;2023-07-31T12:22:46;19.84;77.19
74968;SHT30;63523;51.880;12.630;2023-07-31T12:27:44;19.94;76.10
74968;SHT30;63523;51.880;12.630;2023-07-31T12:30:29;20.04;75.91
74968;SHT30;63523;51.880;12.630;2023-07-31T12:32:55;20.07;74.77
74968;SHT30;63523;51.880;12.630;2023-07-31T12:35:20;20.08;74.61
74968;SHT30;63523;51.880;12.630;2023-07-31T12:37:45;20.08;73.32
74968;SHT30;63523;51.880;12.630;2023-07-31T12:40:11;20.24;73.09
74968;SHT30;63523;51.880;12.630;2023-07-31T12:42:37;20.32;73.33
74968;SHT30;63523;51.880;12.630;2023-07-31T12:45:03;20.46;71.31
74968;SHT30;63523;51.880;12.630;2023-07-31T12:47:29;20.59;69.54
74968;SHT30;63523;51.880;12.630;2023-07-31T12:49:54;20.80;69.43
74968;SHT30;63523;51.880;12.630;2023-07-31T12:52:20;21.04;68.18
74968;SHT30;63523;51.880;12.630;2023-07-31T12:54:45;21.37;68.10
74968;SHT30;63523;51.880;12.630;2023-07-31T12:57:11;21.67;64.56
74968;SHT30;63523;51.880;12.630;2023-07-31T12:59:36;21.94;65.21
74968;SHT30;63523;51.880;12.630;2023-07-31T13:02:01;22.32;64.58
74968;SHT30;63523;51.880;12.630;2023-07-31T13:04:27;22.44;62.33
74968;SHT30;63523;51.880;12.630;2023-07-31T13:06:52;22.51;61.38
74968;SHT30;63523;51.880;12.630;2023-07-31T13:09:17;22.42;60.83
74968;SHT30;63523;51.880;12.630;2023-07-31T13:11:43;22.40;61.13
74968;SHT30;63523;51.880;12.630;2023-07-31T13:14:08;22.28;62.45
74968;SHT30;63523;51.880;12.630;2023-07-31T13:16:33;22.17;60.67
74968;SHT30;63523;51.880;12.630;2023-07-31T13:18:59;22.13;61.39
74968;SHT30;63523;51.880;12.630;2023-07-31T13:21:24;22.03;61.58
74968;SHT30;63523;51.880;12.630;2023-07-31T13:23:49;21.87;63.37
74968;SHT30;63523;51.880;12.630;2023-07-31T13:26:15;21.78;62.73
74968;SHT30;63523;51.880;12.630;2023-07-31T13:28:40;21.87;63.06
74968;SHT30;63523;51.880;12.630;2023-07-31T13:31:05;22.08;62.91
74968;SHT30;63523;51.880;12.630;2023-07-31T13:33:31;22.41;61.85
74968;SHT30;63523;51.880;12.630;2023-07-31T13:35:56;22.49;60.99
74968;SHT30;63523;51.880;12.630;2023-07-31T13:38:21;22.44;60.55
74968;SHT30;63523;51.880;12.630;2023-07-31T13:40:46;22.40;61.17
74968;SHT30;63523;51.880;12.630;2023-07-31T13:43:12;22.30;61.69
74968;SHT30;63523;51.880;12.630;2023-07-31T13:45:37;22.24;61.37
74968;SHT30;63523;51.880;12.630;2023-07-31T13:48:02;22.06;61.79
74968;SHT30;63523;51.880;12.630;2023-07-31T13:50:28;22.01;61.94
74968;SHT30;63523;51.880;12.630;2023-07-31T13:52:54;22.15;61.61
74968;SHT30;63523;51.880;12.630;2023-07-31T13:55:20;22.34;62.14
74968;SHT30;63523;51.880;12.630;2023-07-31T13:57:45;22.52;61.28
74968;SHT30;63523;51.880;12.630;2023-07-31T14:00:11;22.70;61.23
74968;SHT30;63523;51.880;12.630;2023-07-31T14:02:37;22.89;60.37
74968;SHT30;63523;51.880;12.630;2023-07-31T14:05:02;23.14;57.93
74968;SHT30;63523;51.880;12.630;2023-07-31T14:07:28;23.20;57.64
74968;SHT30;63523;51.880;12.630;2023-07-31T14:09:53;23.38;59.23
74968;SHT30;63523;51.880;12.630;2023-07-31T14:12:18;23.42;57.85
74968;SHT30;63523;51.880;12.630;2023-07-31T14:14:44;23.52;58.88
74968;SHT30;63523;51.880;12.630;2023-07-31T14:17:09;23.48;58.14
74968;SHT30;63523;51.880;12.630;2023-07-31T14:19:35;23.35;58.16
74968;SHT30;63523;51.880;12.630;2023-07-31T14:22:00;23.38;59.56
74968;SHT30;63523;51.880;12.630;2023-07-31T14:24:25;23.25;58.86
74968;SHT30;63523;51.880;12.630;2023-07-31T14:26:50;23.10;58.79
74968;SHT30;63523;51.880;12.630;2023-07-31T14:29:16;22.96;59.08
74968;SHT30;63523;51.880;12.630;2023-07-31T14:31:41;22.92;59.53
74968;SHT30;63523;51.880;12.630;2023-07-31T14:34:06;22.93;59.86
74968;SHT30;63523;51.880;12.630;2023-07-31T14:36:32;22.87;59.93
74968;SHT30;63523;51.880;12.630;2023-07-31T14:38:57;22.80;59.13
74968;SHT30;63523;51.880;12.630;2023-07-31T14:41:22;22.76;59.21
74968;SHT30;63523;51.880;12.630;2023-07-31T14:43:47;22.68;59.48
74968;SHT30;63523;51.880;12.630;2023-07-31T14:46:13;22.56;59.05
74968;SHT30;63523;51.880;12.630;2023-07-31T14:48:39;22.51;59.18
74968;SHT30;63523;51.880;12.630;2023-07-31T14:51:05;22.49;58.23
74968;SHT30;63523;51.880;12.630;2023-07-31T14:53:30;22.42;59.86
74968;SHT30;63523;51.880;12.630;2023-07-31T14:55:55;22.38;59.97
74968;SHT30;63523;51.880;12.630;2023-07-31T14:58:22;22.35;60.40
74968;SHT30;63523;51.880;12.630;2023-07-31T15:00:48;22.35;60.84
74968;SHT30;63523;51.880;12.630;2023-07-31T15:03:13;22.38;61.04
74968;SHT30;63523;51.880;12.630;2023-07-31T15:05:38;22.34;61.65
74968;SHT30;63523;51.880;12.630;2023-07-31T15:08:04;22.34;60.39
74968;SHT30;63523;51.880;12.630;2023-07-31T15:10:29;22.30;60.97
74968;SHT30;63523;51.880;12.630;2023-07-31T15:12:54;22.40;59.83
74968;SHT30;63523;51.880;12.630;2023-07-31T15:15:19;22.32;60.11
74968;SHT30;63523;51.880;12.630;2023-07-31T15:17:45;22.27;60.70
74968;SHT30;63523;51.880;12.630;2023-07-31T15:20:10;22.20;60.82
74968;SHT30;63523;51.880;12.630;2023-07-31T15:22:37;22.13;60.80